sensor_id;sensor_type;location;lat;lon;timestamp;pressure;altitude;pressure_sealevel;temperature;humidity
38718;BME280;24468;52.128;9.278;2023-01-31T00:01:34;101136.44;;;4.80;100.00
38718;BME280;24468;52.128;9.278;2023-01-31T00:04:03;101141.72;;;4.89;100.00
38718;BME280;24468;52.128;9.278;2023-01-31T00:06:37;101136.53;;;4.74;100.00
38718;BME280;24468;52.128;9.278;2023-01-31T00:09:05;101171.16;;;4.84;100.00
38718;BME280;24468;52.128;9.278;2023-01-31T00:11:32;101147.00;;;4.95;100.00
38718;BME280;24468;52.128;9.278;2023-01-31T00:13:59;101139.09;;;4.84;100.00
38718;BME280;24468;52.128;9.278;2023-01-31T00:16:25;101175.47;;;4.98;100.00
38718;BME280;24468;52.128;9.278;2023-01-31T00:18:51;101149.75;;;4.87;100.00
38718;BME280;24468;52.128;9.278;2023-01-31T00:21:23;101149.81;;;4.81;100.00
38718;BME280;24468;52.128;9.278;2023-01-31T00:23:50;101148.94;;;4.81;100.00
38718;BME280;24468;52.128;9.278;2023-01-31T00:26:28;101150.63;;;4.89;100.00
38718;BME280;24468;52.128;9.278;2023-01-31T00:28:55;101143.59;;;4.81;100.00
38718;BME280;24468;52.128;9.278;2023-01-31T00:31:25;101133.94;;;4.66;100.00
38718;BME280;24468;52.128;9.278;2023-01-31T00:33:53;101149.91;;;4.75;100.00
38718;BME280;24468;52.128;9.278;2023-01-31T00:36:26;101139.25;;;4.72;100.00
38718;BME280;24468;52.128;9.278;2023-01-31T00:38:55;101149.75;;;4.89;100.00
38718;BME280;24468;52.128;9.278;2023-01-31T00:41:23;101134.88;;;4.60;100.00
38718;BME280;24468;52.128;9.278;2023-01-31T00:43:50;101147.25;;;4.71;100.00
38718;BME280;24468;52.128;9.278;2023-01-31T00:46:16;101128.53;;;4.72;100.00
38718;BME280;24468;52.128;9.278;2023-01-31T00:48:45;101143.72;;;4.68;100.00
38718;BME280;24468;52.128;9.278;2023-01-31T00:51:10;101141.75;;;4.84;100.00
38718;BME280;24468;52.128;9.278;2023-01-31T00:53:36;101148.97;;;4.78;100.00
38718;BME280;24468;52.128;9.278;2023-01-31T00:56:11;101137.22;;;4.93;100.00
38718;BME280;24468;52.128;9.278;2023-01-31T00:58:37;101155.16;;;4.80;100.00
38718;BME280;24468;52.128;9.278;2023-01-31T01:03:36;101146.06;;;4.98;100.00
38718;BME280;24468;52.128;9.278;2023-01-31T01:06:02;101155.19;;;4.77;100.00
38718;BME280;24468;52.128;9.278;2023-01-31T01:08:28;101148.91;;;4.84;100.00
38718;BME280;24468;52.128;9.278;2023-01-31T01:10:54;101150.63;;;4.91;100.00
38718;BME280;24468;52.128;9.278;2023-01-31T01:13:20;101147.22;;;4.74;100.00
38718;BME280;24468;52.128;9.278;2023-01-31T01:15:46;101158.72;;;4.82;100.00
38718;BME280;24468;52.128;9.278;2023-01-31T01:18:11;101163.03;;;4.95;100.00
38718;BME280;24468;52.128;9.278;2023-01-31T01:20:37;101150.63;;;4.91;100.00
38718;BME280;24468;52.128;9.278;2023-01-31T01:23:02;101139.97;;;4.85;100.00
38718;BME280;24468;52.128;9.278;2023-01-31T01:25:28;101158.63;;;4.91;100.00
38718;BME280;24468;52.128;9.278;2023-01-31T01:27:53;101156.94;;;4.82;100.00
38718;BME280;24468;52.128;9.278;2023-01-31T01:30:19;101155.28;;;4.71;100.00
38718;BME280;24468;52.128;9.278;2023-01-31T01:32:45;101176.66;;;4.72;100.00
38718;BME280;24468;52.128;9.278;2023-01-31T01:35:11;101185.72;;;4.54;100.00
38718;BME280;24468;52.128;9.278;2023-01-31T01:37:37;101173.22;;;4.61;100.00
38718;BME280;24468;52.128;9.278;2023-01-31T01:40:03;101175.72;;;4.78;100.00
38718;BME280;24468;52.128;9.278;2023-01-31T01:42:34;101183.66;;;4.84;100.00
38718;BME280;24468;52.128;9.278;2023-01-31T01:45:02;101188.25;;;4.70;100.00
38718;BME280;24468;52.128;9.278;2023-01-31T01:47:52;101191.94;;;4.55;100.00
38718;BME280;24468;52.128;9.278;2023-01-31T01:50:39;101180.34;;;4.59;100.00
38718;BME280;24468;52.128;9.278;2023-01-31T01:55:44;101197.31;;;4.53;100.00
38718;BME280;24468;52.128;9.278;2023-01-31T01:58:20;101223.06;;;4.60;100.00
38718;BME280;24468;52.128;9.278;2023-01-31T02:00:48;101195.41;;;4.66;100.00
38718;BME280;24468;52.128;9.278;2023-01-31T02:03:16;101192.75;;;4.63;100.00
38718;BME280;24468;52.128;9.278;2023-01-31T02:05:48;101206.16;;;4.60;100.00
38718;BME280;24468;52.128;9.278;2023-01-31T02:08:19;101205.22;;;4.65;100.00
38718;BME280;24468;52.128;9.278;2023-01-31T02:13:41;101210.56;;;4.67;100.00
38718;BME280;24468;52.128;9.278;2023-01-31T02:16:09;101205.19;;;4.68;100.00
38718;BME280;24468;52.128;9.278;2023-01-31T02:18:35;101225.72;;;4.65;100.00
38718;BME280;24468;52.128;9.278;2023-01-31T02:21:45;101218.66;;;4.55;100.00
38718;BME280;24468;52.128;9.278;2023-01-31T02:30:27;101232.88;;;4.61;100.00
38718;BME280;24468;52.128;9.278;2023-01-31T02:38:58;101199.13;;;4.50;100.00
38718;BME280;24468;52.128;9.278;2023-01-31T02:42:10;101192.91;;;4.51;100.00
38718;BME280;24468;52.128;9.278;2023-01-31T02:44:51;101197.41;;;4.42;100.00
38718;BME280;24468;52.128;9.278;2023-01-31T02:47:31;101192.81;;;4.57;100.00
38718;BME280;24468;52.128;9.278;2023-01-31T02:53:00;101208.09;;;4.42;100.00
38718;BME280;24468;52.128;9.278;2023-01-31T02:55:46;101215.19;;;4.48;100.00
38718;BME280;24468;52.128;9.278;2023-01-31T02:58:36;101226.66;;;4.59;100.00
38718;BME280;24468;52.128;9.278;2023-01-31T03:01:04;101223.97;;;4.62;100.00
38718;BME280;24468;52.128;9.278;2023-01-31T03:03:35;101223.00;;;4.68;100.00
38718;BME280;24468;52.128;9.278;2023-01-31T03:12:31;101223.13;;;4.56;100.00
38718;BME280;24468;52.128;9.278;2023-01-31T03:18:25;101210.59;;;4.64;100.00
38718;BME280;24468;52.128;9.278;2023-01-31T03:21:15;101212.41;;;4.59;100.00
38718;BME280;24468;52.128;9.278;2023-01-31T03:23:45;101203.34;;;4.75;100.00
38718;BME280;24468;52.128;9.278;2023-01-31T03:26:13;101218.78;;;4.41;100.00
38718;BME280;24468;52.128;9.278;2023-01-31T03:28:41;101190.19;;;4.52;100.00
38718;BME280;24468;52.128;9.278;2023-01-31T03:31:22;101197.38;;;4.44;100.00
38718;BME280;24468;52.128;9.278;2023-01-31T03:33:53;101202.84;;;4.30;100.00
38718;BME280;24468;52.128;9.278;2023-01-31T03:39:38;101175.38;;;4.16;100.00
38718;BME280;24468;52.128;9.278;2023-01-31T03:42:16;101188.66;;;4.22;100.00
38718;BME280;24468;52.128;9.278;2023-01-31T03:47:29;101185.06;;;4.31;100.00
38718;BME280;24468;52.128;9.278;2023-01-31T03:49:58;101178.88;;;4.24;100.00
38718;BME280;24468;52.128;9.278;2023-01-31T03:52:34;101186.81;;;4.32;100.00
38718;BME280;24468;52.128;9.278;2023-01-31T03:55:16;101200.03;;;4.49;100.00
38718;BME280;24468;52.128;9.278;2023-01-31T03:57:45;101191.25;;;4.34;100.00
38718;BME280;24468;52.128;9.278;2023-01-31T04:00:15;101187.81;;;4.18;100.00
38718;BME280;24468;52.128;9.278;2023-01-31T04:02:43;101194.81;;;4.36;100.00
38718;BME280;24468;52.128;9.278;2023-01-31T04:05:11;101196.56;;;4.36;100.00
38718;BME280;24468;52.128;9.278;2023-01-31T04:07:39;101195.75;;;4.29;100.00
38718;BME280;24468;52.128;9.278;2023-01-31T04:10:12;101200.38;;;4.07;100.00
38718;BME280;24468;52.128;9.278;2023-01-31T04:12:39;101201.22;;;4.12;100.00
38718;BME280;24468;52.128;9.278;2023-01-31T04:15:07;101192.41;;;3.95;100.00
38718;BME280;24468;52.128;9.278;2023-01-31T04:17:33;101185.19;;;4.11;100.00
38718;BME280;24468;52.128;9.278;2023-01-31T04:19:59;101180.84;;;4.00;100.00
38718;BME280;24468;52.128;9.278;2023-01-31T04:22:24;101178.19;;;3.96;100.00
38718;BME280;24468;52.128;9.278;2023-01-31T04:24:50;101183.59;;;3.88;100.00
38718;BME280;24468;52.128;9.278;2023-01-31T04:27:15;101171.03;;;3.99;100.00
38718;BME280;24468;52.128;9.278;2023-01-31T04:29:41;101184.31;;;4.12;100.00
38718;BME280;24468;52.128;9.278;2023-01-31T04:32:06;101181.72;;;3.99;100.00
38718;BME280;24468;52.128;9.278;2023-01-31T04:34:32;101186.09;;;4.10;100.00
38718;BME280;24468;52.128;9.278;2023-01-31T04:36:58;101195.03;;;4.09;100.00
38718;BME280;24468;52.128;9.278;2023-01-31T04:39:23;101175.50;;;3.97;100.00
38718;BME280;24468;52.128;9.278;2023-01-31T04:41:49;101186.88;;;4.24;100.00
38718;BME280;24468;52.128;9.278;2023-01-31T04:44:14;101187.91;;;4.08;100.00
38718;BME280;24468;52.128;9.278;2023-01-31T04:46:41;101183.41;;;4.11;100.00
38718;BME280;24468;52.128;9.278;2023-01-31T04:49:07;101183.25;;;4.34;100.00
38718;BME280;24468;52.128;9.278;2023-01-31T04:51:33;101164.81;;;4.00;100.00
38718;BME280;24468;52.128;9.278;2023-01-31T04:53:58;101163.00;;;4.03;100.00
38718;BME280;24468;52.128;9.278;2023-01-31T04:56:24;101167.41;;;4.10;100.00
38718;BME280;24468;52.128;9.278;2023-01-31T04:58:50;101181.56;;;4.19;100.00
38718;BME280;24468;52.128;9.278;2023-01-31T05:01:15;101177.31;;;3.95;100.00
38718;BME280;24468;52.128;9.278;2023-01-31T05:03:41;101187.81;;;4.18;100.00
38718;BME280;24468;52.128;9.278;2023-01-31T05:06:06;101194.75;;;4.42;100.00
38718;BME280;24468;52.128;9.278;2023-01-31T05:08:33;101194.84;;;4.32;100.00
38718;BME280;24468;52.128;9.278;2023-01-31T05:11:00;101192.25;;;4.19;100.00
38718;BME280;24468;52.128;9.278;2023-01-31T05:13:26;101187.72;;;4.29;100.00
38718;BME280;24468;52.128;9.278;2023-01-31T05:15:54;101190.41;;;4.29;100.00
38718;BME280;24468;52.128;9.278;2023-01-31T05:18:23;101202.72;;;4.47;100.00
38718;BME280;24468;52.128;9.278;2023-01-31T05:20:48;101176.19;;;4.24;100.00
38718;BME280;24468;52.128;9.278;2023-01-31T05:23:16;101177.88;;;4.36;100.00
38718;BME280;24468;52.128;9.278;2023-01-31T05:25:42;101173.34;;;4.44;100.00
38718;BME280;24468;52.128;9.278;2023-01-31T05:28:08;101176.00;;;4.45;100.00
38718;BME280;24468;52.128;9.278;2023-01-31T05:30:34;101178.06;;;4.11;100.00
38718;BME280;24468;52.128;9.278;2023-01-31T05:33:00;101161.88;;;4.34;100.00
38718;BME280;24468;52.128;9.278;2023-01-31T05:35:25;101168.91;;;4.43;100.00
38718;BME280;24468;52.128;9.278;2023-01-31T05:37:53;101165.47;;;4.27;100.00
38718;BME280;24468;52.128;9.278;2023-01-31T05:40:19;101161.75;;;4.48;100.00
38718;BME280;24468;52.128;9.278;2023-01-31T05:42:56;101163.63;;;4.35;100.00
38718;BME280;24468;52.128;9.278;2023-01-31T05:45:22;101159.22;;;4.31;100.00
38718;BME280;24468;52.128;9.278;2023-01-31T05:47:48;101156.44;;;4.45;100.00
38718;BME280;24468;52.128;9.278;2023-01-31T05:50:15;101152.72;;;4.61;100.00
38718;BME280;24468;52.128;9.278;2023-01-31T05:52:40;101158.75;;;4.80;100.00
38718;BME280;24468;52.128;9.278;2023-01-31T05:55:06;101146.31;;;4.76;100.00
38718;BME280;24468;52.128;9.278;2023-01-31T05:57:32;101162.59;;;4.52;100.00
38718;BME280;24468;52.128;9.278;2023-01-31T05:59:57;101148.34;;;4.53;100.00
38718;BME280;24468;52.128;9.278;2023-01-31T06:02:24;101140.97;;;4.76;100.00
38718;BME280;24468;52.128;9.278;2023-01-31T06:04:49;101137.38;;;4.80;100.00
38718;BME280;24468;52.128;9.278;2023-01-31T06:07:15;101131.34;;;4.60;100.00
38718;BME280;24468;52.128;9.278;2023-01-31T06:09:40;101141.09;;;4.64;100.00
38718;BME280;24468;52.128;9.278;2023-01-31T06:12:12;101126.72;;;4.74;100.00
38718;BME280;24468;52.128;9.278;2023-01-31T06:14:38;101134.81;;;4.68;100.00
38718;BME280;24468;52.128;9.278;2023-01-31T06:17:04;101143.66;;;4.72;100.00
38718;BME280;24468;52.128;9.278;2023-01-31T06:19:29;101145.38;;;4.80;100.00
38718;BME280;24468;52.128;9.278;2023-01-31T06:21:55;101137.28;;;4.85;100.00
38718;BME280;24468;52.128;9.278;2023-01-31T06:24:20;101143.50;;;4.87;100.00
38718;BME280;24468;52.128;9.278;2023-01-31T06:26:46;101127.50;;;4.84;100.00
38718;BME280;24468;52.128;9.278;2023-01-31T06:29:11;101130.09;;;4.90;100.00
38718;BME280;24468;52.128;9.278;2023-01-31T06:31:37;101128.59;;;4.69;100.00
38718;BME280;24468;52.128;9.278;2023-01-31T06:34:03;101134.66;;;4.83;100.00
38718;BME280;24468;52.128;9.278;2023-01-31T06:36:31;101122.25;;;4.78;100.00
38718;BME280;24468;52.128;9.278;2023-01-31T06:38:58;101128.59;;;4.69;100.00
38718;BME280;24468;52.128;9.278;2023-01-31T06:41:23;101116.09;;;4.68;100.00
38718;BME280;24468;52.128;9.278;2023-01-31T06:43:49;101118.00;;;4.58;100.00
38718;BME280;24468;52.128;9.278;2023-01-31T06:46:16;101114.94;;;4.92;100.00
38718;BME280;24468;52.128;9.278;2023-01-31T06:48:42;101107.16;;;4.72;100.00
38718;BME280;24468;52.128;9.278;2023-01-31T06:51:08;101112.81;;;4.41;100.00
38718;BME280;24468;52.128;9.278;2023-01-31T06:53:34;101114.56;;;4.45;100.00
38718;BME280;24468;52.128;9.278;2023-01-31T06:55:59;101108.16;;;4.60;100.00
38718;BME280;24468;52.128;9.278;2023-01-31T06:58:25;101114.41;;;4.61;100.00
38718;BME280;24468;52.128;9.278;2023-01-31T07:00:51;101109.03;;;4.64;100.00
38718;BME280;24468;52.128;9.278;2023-01-31T07:03:16;101112.56;;;4.67;100.00
38718;BME280;24468;52.128;9.278;2023-01-31T07:05:45;101105.50;;;4.62;100.00
38718;BME280;24468;52.128;9.278;2023-01-31T07:08:10;101105.38;;;4.71;100.00
38718;BME280;24468;52.128;9.278;2023-01-31T07:10:36;101096.34;;;4.83;100.00
38718;BME280;24468;52.128;9.278;2023-01-31T07:13:02;101083.19;;;4.64;100.00
38718;BME280;24468;52.128;9.278;2023-01-31T07:15:27;101107.03;;;4.81;100.00
38718;BME280;24468;52.128;9.278;2023-01-31T07:17:59;101100.81;;;4.81;100.00
38718;BME280;24468;52.128;9.278;2023-01-31T07:20:25;101093.50;;;4.95;100.00
38718;BME280;24468;52.128;9.278;2023-01-31T07:22:57;101086.63;;;4.74;100.00
38718;BME280;24468;52.128;9.278;2023-01-31T07:25:25;101093.81;;;4.72;100.00
38718;BME280;24468;52.128;9.278;2023-01-31T07:27:50;101089.16;;;4.85;100.00
38718;BME280;24468;52.128;9.278;2023-01-31T07:30:16;101079.31;;;4.92;100.00
38718;BME280;24468;52.128;9.278;2023-01-31T07:32:42;101083.72;;;4.94;100.00
38718;BME280;24468;52.128;9.278;2023-01-31T07:35:08;101067.59;;;4.99;100.00
38718;BME280;24468;52.128;9.278;2023-01-31T07:37:34;101066.84;;;4.87;100.00
38718;BME280;24468;52.128;9.278;2023-01-31T07:39:59;101053.94;;;5.20;100.00
38718;BME280;24468;52.128;9.278;2023-01-31T07:42:27;101052.31;;;5.10;100.00
38718;BME280;24468;52.128;9.278;2023-01-31T07:44:52;101057.72;;;5.05;100.00
38718;BME280;24468;52.128;9.278;2023-01-31T07:47:18;101044.53;;;4.92;100.00
38718;BME280;24468;52.128;9.278;2023-01-31T07:49:43;101043.69;;;4.88;100.00
38718;BME280;24468;52.128;9.278;2023-01-31T07:52:09;101047.19;;;4.95;100.00
38718;BME280;24468;52.128;9.278;2023-01-31T07:54:34;101038.09;;;5.08;100.00
38718;BME280;24468;52.128;9.278;2023-01-31T07:57:00;101055.06;;;5.05;100.00
38718;BME280;24468;52.128;9.278;2023-01-31T07:59:26;101043.16;;;5.26;100.00
38718;BME280;24468;52.128;9.278;2023-01-31T08:01:51;101029.97;;;5.14;100.00
38718;BME280;24468;52.128;9.278;2023-01-31T08:04:35;101035.50;;;5.00;100.00
38718;BME280;24468;52.128;9.278;2023-01-31T08:07:01;101022.88;;;5.10;100.00
38718;BME280;24468;52.128;9.278;2023-01-31T08:09:30;101026.25;;;5.24;100.00
38718;BME280;24468;52.128;9.278;2023-01-31T08:11:55;101025.94;;;5.46;100.00
38718;BME280;24468;52.128;9.278;2023-01-31T08:14:21;101017.16;;;5.34;100.00
38718;BME280;24468;52.128;9.278;2023-01-31T08:16:53;101017.16;;;5.34;100.00
38718;BME280;24468;52.128;9.278;2023-01-31T08:19:19;101024.56;;;5.17;100.00
38718;BME280;24468;52.128;9.278;2023-01-31T08:21:44;100994.84;;;5.37;100.00
38718;BME280;24468;52.128;9.278;2023-01-31T08:24:10;101004.47;;;5.49;100.00
38718;BME280;24468;52.128;9.278;2023-01-31T08:26:35;100998.03;;;5.61;100.00
38718;BME280;24468;52.128;9.278;2023-01-31T08:29:01;101000.66;;;5.65;100.00
38718;BME280;24468;52.128;9.278;2023-01-31T08:31:27;101001.59;;;5.61;100.00
38718;BME280;24468;52.128;9.278;2023-01-31T08:33:54;100976.84;;;5.47;100.00
38718;BME280;24468;52.128;9.278;2023-01-31T08:36:23;100980.94;;;5.69;100.00
38718;BME280;24468;52.128;9.278;2023-01-31T08:38:49;100965.59;;;5.79;100.00
38718;BME280;24468;52.128;9.278;2023-01-31T08:41:17;100956.78;;;5.72;100.00
38718;BME280;24468;52.128;9.278;2023-01-31T08:43:44;100951.66;;;5.60;100.00
38718;BME280;24468;52.128;9.278;2023-01-31T08:46:10;100979.94;;;5.75;100.00
38718;BME280;24468;52.128;9.278;2023-01-31T08:48:37;100955.78;;;5.79;100.00
38718;BME280;24468;52.128;9.278;2023-01-31T08:51:09;100956.19;;;5.55;100.00
38718;BME280;24468;52.128;9.278;2023-01-31T08:53:37;100939.16;;;5.61;100.00
38718;BME280;24468;52.128;9.278;2023-01-31T08:56:05;100949.09;;;5.54;100.00
38718;BME280;24468;52.128;9.278;2023-01-31T08:58:35;100940.84;;;5.65;100.00
38718;BME280;24468;52.128;9.278;2023-01-31T09:01:05;100943.50;;;5.68;100.00
38718;BME280;24468;52.128;9.278;2023-01-31T09:03:31;100931.47;;;5.90;100.00
38718;BME280;24468;52.128;9.278;2023-01-31T09:06:02;100952.81;;;5.96;100.00
38718;BME280;24468;52.128;9.278;2023-01-31T09:08:29;100931.38;;;5.98;100.00
38718;BME280;24468;52.128;9.278;2023-01-31T09:10:56;100925.00;;;6.04;100.00
38718;BME280;24468;52.128;9.278;2023-01-31T09:13:22;100924.16;;;6.00;100.00
38718;BME280;24468;52.128;9.278;2023-01-31T09:15:59;100907.88;;;6.12;100.00
38718;BME280;24468;52.128;9.278;2023-01-31T09:18:25;100915.03;;;6.12;100.00
38718;BME280;24468;52.128;9.278;2023-01-31T09:20:51;100898.38;;;5.94;100.00
38718;BME280;24468;52.128;9.278;2023-01-31T09:23:17;100919.66;;;6.02;100.00
38718;BME280;24468;52.128;9.278;2023-01-31T09:25:53;100893.66;;;5.59;100.00
38718;BME280;24468;52.128;9.278;2023-01-31T09:28:21;100920.28;;;5.67;100.00
38718;BME280;24468;52.128;9.278;2023-01-31T09:30:47;100923.09;;;5.61;100.00
38718;BME280;24468;52.128;9.278;2023-01-31T09:33:13;100921.53;;;5.47;100.00
38718;BME280;24468;52.128;9.278;2023-01-31T09:35:38;100903.97;;;5.32;100.00
38718;BME280;24468;52.128;9.278;2023-01-31T09:38:04;100923.44;;;5.41;100.00
38718;BME280;24468;52.128;9.278;2023-01-31T09:40:33;100893.44;;;5.22;100.00
38718;BME280;24468;52.128;9.278;2023-01-31T09:43:01;100895.75;;;5.43;100.00
38718;BME280;24468;52.128;9.278;2023-01-31T09:45:34;100899.44;;;5.34;100.00
38718;BME280;24468;52.128;9.278;2023-01-31T09:48:04;100892.84;;;5.55;100.00
38718;BME280;24468;52.128;9.278;2023-01-31T09:51:01;100888.16;;;5.17;100.00
38718;BME280;24468;52.128;9.278;2023-01-31T09:53:32;100866.72;;;5.20;100.00
38718;BME280;24468;52.128;9.278;2023-01-31T09:56:42;100885.44;;;5.20;100.00
38718;BME280;24468;52.128;9.278;2023-01-31T09:59:22;100891.00;;;5.08;100.00
38718;BME280;24468;52.128;9.278;2023-01-31T10:05:32;100891.72;;;5.18;100.00
38718;BME280;24468;52.128;9.278;2023-01-31T10:08:35;100870.81;;;5.40;100.00
38718;BME280;24468;52.128;9.278;2023-01-31T10:11:13;100864.19;;;5.11;100.00
38718;BME280;24468;52.128;9.278;2023-01-31T10:13:54;100865.94;;;5.12;100.00
38718;BME280;24468;52.128;9.278;2023-01-31T10:16:38;100845.34;;;5.19;100.00
38718;BME280;24468;52.128;9.278;2023-01-31T10:19:30;100855.88;;;5.28;100.00
38718;BME280;24468;52.128;9.278;2023-01-31T10:22:04;100842.69;;;5.17;100.00
38718;BME280;24468;52.128;9.278;2023-01-31T10:24:38;100852.56;;;5.13;100.00
38718;BME280;24468;52.128;9.278;2023-01-31T10:27:14;100842.63;;;5.20;100.00
38718;BME280;24468;52.128;9.278;2023-01-31T10:29:51;100847.94;;;5.23;100.00
38718;BME280;24468;52.128;9.278;2023-01-31T10:32:29;100842.50;;;5.29;100.00
38718;BME280;24468;52.128;9.278;2023-01-31T10:35:24;100862.72;;;5.44;100.00
38718;BME280;24468;52.128;9.278;2023-01-31T10:38:21;100829.75;;;5.44;100.00
38718;BME280;24468;52.128;9.278;2023-01-31T10:40:56;100818.84;;;5.54;100.00
38718;BME280;24468;52.128;9.278;2023-01-31T10:43:37;100824.59;;;5.33;100.00
38718;BME280;24468;52.128;9.278;2023-01-31T10:46:11;100804.78;;;5.43;100.00
38718;BME280;24468;52.128;9.278;2023-01-31T10:48:37;100825.25;;;5.46;100.00
38718;BME280;24468;52.128;9.278;2023-01-31T10:51:46;100750.06;;;5.58;100.00
38718;BME280;24468;52.128;9.278;2023-01-31T10:56:47;100793.09;;;5.47;100.00
38718;BME280;24468;52.128;9.278;2023-01-31T10:59:29;100775.78;;;5.65;100.00
38718;BME280;24468;52.128;9.278;2023-01-31T11:01:56;100743.59;;;5.68;100.00
38718;BME280;24468;52.128;9.278;2023-01-31T11:04:31;100789.34;;;5.57;100.00
38718;BME280;24468;52.128;9.278;2023-01-31T11:07:00;100770.31;;;5.70;100.00
38718;BME280;24468;52.128;9.278;2023-01-31T11:09:31;100754.97;;;5.78;100.00
38718;BME280;24468;52.128;9.278;2023-01-31T11:12:04;100742.91;;;5.58;100.00
38718;BME280;24468;52.128;9.278;2023-01-31T11:14:30;100718.19;;;5.88;100.00
38718;BME280;24468;52.128;9.278;2023-01-31T11:17:17;100732.97;;;5.65;100.00
38718;BME280;24468;52.128;9.278;2023-01-31T11:19:54;100735.41;;;5.76;100.00
38718;BME280;24468;52.128;9.278;2023-01-31T11:22:30;100753.44;;;5.68;100.00
38718;BME280;24468;52.128;9.278;2023-01-31T11:24:59;100739.28;;;5.61;100.00
38718;BME280;24468;52.128;9.278;2023-01-31T11:27:48;100731.66;;;5.85;100.00
38718;BME280;24468;52.128;9.278;2023-01-31T11:30:37;100747.03;;;5.75;100.00
38718;BME280;24468;52.128;9.278;2023-01-31T11:33:04;100721.72;;;5.90;100.00
38718;BME280;24468;52.128;9.278;2023-01-31T11:35:32;100711.19;;;5.82;100.00
38718;BME280;24468;52.128;9.278;2023-01-31T11:40:37;100730.53;;;5.53;100.00
38718;BME280;24468;52.128;9.278;2023-01-31T11:43:09;100724.88;;;5.68;100.00
38718;BME280;24468;52.128;9.278;2023-01-31T11:45:57;100734.25;;;5.88;100.00
38718;BME280;24468;52.128;9.278;2023-01-31T11:48:44;100736.38;;;5.73;100.00
38718;BME280;24468;52.128;9.278;2023-01-31T11:51:27;100727.97;;;5.89;100.00
38718;BME280;24468;52.128;9.278;2023-01-31T11:53:55;100736.28;;;5.76;100.00
38718;BME280;24468;52.128;9.278;2023-01-31T11:56:26;100740.28;;;5.55;100.00
38718;BME280;24468;52.128;9.278;2023-01-31T11:58:57;100736.59;;;5.63;100.00
38718;BME280;24468;52.128;9.278;2023-01-31T12:01:28;100719.69;;;5.61;100.00
38718;BME280;24468;52.128;9.278;2023-01-31T12:04:00;100721.09;;;5.77;100.00
38718;BME280;24468;52.128;9.278;2023-01-31T12:06:36;100691.03;;;5.64;100.00
38718;BME280;24468;52.128;9.278;2023-01-31T12:09:17;100690.97;;;5.67;100.00
38718;BME280;24468;52.128;9.278;2023-01-31T12:11:55;100670.56;;;5.62;100.00
38718;BME280;24468;52.128;9.278;2023-01-31T12:14:22;100657.50;;;5.88;100.00
38718;BME280;24468;52.128;9.278;2023-01-31T12:16:54;100679.72;;;5.93;100.00
38718;BME280;24468;52.128;9.278;2023-01-31T12:19:43;100677.66;;;6.06;100.00
38718;BME280;24468;52.128;9.278;2023-01-31T12:22:51;100726.50;;;6.17;100.00
38718;BME280;24468;52.128;9.278;2023-01-31T12:28:32;100663.69;;;5.90;100.00
38718;BME280;24468;52.128;9.278;2023-01-31T12:31:27;100659.84;;;6.04;100.00
38718;BME280;24468;52.128;9.278;2023-01-31T12:37:59;100684.25;;;5.90;100.00
38718;BME280;24468;52.128;9.278;2023-01-31T12:40:56;100670.91;;;5.87;100.00
38718;BME280;24468;52.128;9.278;2023-01-31T12:52:15;100653.88;;;5.91;100.00
38718;BME280;24468;52.128;9.278;2023-01-31T13:01:39;100641.66;;;5.79;100.00
38718;BME280;24468;52.128;9.278;2023-01-31T13:04:34;100692.22;;;5.91;100.00
38718;BME280;24468;52.128;9.278;2023-01-31T13:07:06;100692.19;;;5.94;100.00
38718;BME280;24468;52.128;9.278;2023-01-31T13:09:35;100689.44;;;5.97;100.00
38718;BME280;24468;52.128;9.278;2023-01-31T13:12:17;100685.44;;;5.76;100.00
38718;BME280;24468;52.128;9.278;2023-01-31T13:14:55;100717.50;;;5.78;100.00
38718;BME280;24468;52.128;9.278;2023-01-31T13:17:25;100702.22;;;5.85;100.00
38718;BME280;24468;52.128;9.278;2023-01-31T13:20:18;100682.13;;;5.65;100.00
38718;BME280;24468;52.128;9.278;2023-01-31T13:22:48;100686.31;;;6.17;100.00
38718;BME280;24468;52.128;9.278;2023-01-31T13:25:44;100706.19;;;6.06;100.00
38718;BME280;24468;52.128;9.278;2023-01-31T13:28:27;100678.38;;;6.11;100.00
38718;BME280;24468;52.128;9.278;2023-01-31T13:31:02;100673.53;;;5.90;100.00
38718;BME280;24468;52.128;9.278;2023-01-31T13:33:40;100686.25;;;5.78;100.00
38718;BME280;24468;52.128;9.278;2023-01-31T13:36:51;100685.06;;;5.92;100.00
38718;BME280;24468;52.128;9.278;2023-01-31T13:39:26;100694.53;;;6.08;100.00
38718;BME280;24468;52.128;9.278;2023-01-31T13:41:54;100673.03;;;6.11;100.00
38718;BME280;24468;52.128;9.278;2023-01-31T13:44:20;100672.16;;;6.11;100.00
38718;BME280;24468;52.128;9.278;2023-01-31T13:47:11;100674.97;;;6.06;100.00
38718;BME280;24468;52.128;9.278;2023-01-31T13:49:53;100652.00;;;5.94;100.00
38718;BME280;24468;52.128;9.278;2023-01-31T13:52:39;100670.50;;;6.05;100.00
38718;BME280;24468;52.128;9.278;2023-01-31T13:58:20;100636.00;;;5.91;100.00
38718;BME280;24468;52.128;9.278;2023-01-31T14:01:15;100664.09;;;6.12;100.00
38718;BME280;24468;52.128;9.278;2023-01-31T14:14:47;100592.81;;;6.07;100.00
38718;BME280;24468;52.128;9.278;2023-01-31T14:20:03;100620.56;;;6.04;100.00
38718;BME280;24468;52.128;9.278;2023-01-31T14:22:37;100627.72;;;6.04;100.00
38718;BME280;24468;52.128;9.278;2023-01-31T14:30:41;100626.00;;;6.01;100.00
38718;BME280;24468;52.128;9.278;2023-01-31T14:33:17;100625.84;;;6.07;100.00
38718;BME280;24468;52.128;9.278;2023-01-31T14:36:30;100627.66;;;6.05;100.00
38718;BME280;24468;52.128;9.278;2023-01-31T14:42:46;100632.06;;;6.08;100.00
38718;BME280;24468;52.128;9.278;2023-01-31T14:48:47;100647.41;;;6.01;100.00
38718;BME280;24468;52.128;9.278;2023-01-31T14:51:36;100621.59;;;5.97;100.00
38718;BME280;24468;52.128;9.278;2023-01-31T14:57:21;100642.06;;;5.99;100.00